createdAt,value
2018-09-21T01:03:03.056Z,9.87
2018-09-21T01:05:30.903Z,9.03
2018-09-21T01:07:59.228Z,13.93
2018-09-21T01:10:27.255Z,8.10
2018-09-21T01:12:55.327Z,13.17
2018-09-21T01:15:23.855Z,7.03
2018-09-21T01:17:51.650Z,7.80
2018-09-21T01:20:19.579Z,10.77
2018-09-21T01:22:47.328Z,10.93
2018-09-21T01:25:15.836Z,9.17
2018-09-21T01:27:43.545Z,9.43
2018-09-21T01:30:11.351Z,14.73
2018-09-21T01:32:39.838Z,10.47
2018-09-21T01:35:07.949Z,8.80
2018-09-21T01:37:35.690Z,9.60
2018-09-21T01:40:03.690Z,6.43
2018-09-21T01:42:32.643Z,13.17
2018-09-21T01:45:00.483Z,8.77
2018-09-21T01:47:35.872Z,10.87
2018-09-21T01:50:03.924Z,6.40
2018-09-21T01:52:32.107Z,7.77
2018-09-21T01:54:59.855Z,9.13
2018-09-21T01:57:27.661Z,9.63
2018-09-21T01:59:55.595Z,12.53
2018-09-21T02:02:23.439Z,8.03
2018-09-21T02:04:52.443Z,8.37
2018-09-21T02:07:20.323Z,10.23
2018-09-21T02:09:48.039Z,6.47
2018-09-21T02:12:15.972Z,7.53
2018-09-21T02:14:43.917Z,7.40
2018-09-21T02:17:11.969Z,6.33
2018-09-21T02:19:39.844Z,9.57
2018-09-21T02:22:08.732Z,13.67
2018-09-21T02:24:36.775Z,7.53
2018-09-21T02:27:04.893Z,9.83
2018-09-21T02:29:32.980Z,11.83
2018-09-21T02:32:00.935Z,9.20
2018-09-21T02:34:28.847Z,8.10
2018-09-21T02:36:57.383Z,9.73
2018-09-21T02:39:28.372Z,11.83
2018-09-21T02:41:56.090Z,9.73
2018-09-21T02:44:23.903Z,11.07
2018-09-21T02:46:52.851Z,9.33
2018-09-21T02:49:21.140Z,7.77
2018-09-21T02:51:49.191Z,10.97
2018-09-21T02:54:17.358Z,8.40
2018-09-21T02:56:45.476Z,8.83
2018-09-21T02:59:13.474Z,9.87
2018-09-21T03:01:41.665Z,7.93
2018-09-21T03:04:10.156Z,16.43
2018-09-21T03:06:38.387Z,7.10
2018-09-21T03:09:08.569Z,6.53
2018-09-21T03:14:29.249Z,7.03
2018-09-21T03:16:59.094Z,12.50
2018-09-21T03:19:26.747Z,13.80
2018-09-21T03:21:54.708Z,11.00
2018-09-21T03:24:22.589Z,9.00
2018-09-21T03:26:50.164Z,7.93
2018-09-21T03:29:18.015Z,8.80
2018-09-21T03:31:45.701Z,8.73
2018-09-21T03:34:14.089Z,10.03
2018-09-21T03:36:41.891Z,10.13
2018-09-21T03:39:10.121Z,9.07
2018-09-21T03:41:38.286Z,7.60
2018-09-21T03:44:05.954Z,10.10
2018-09-21T03:46:33.720Z,7.50
2018-09-21T03:49:01.550Z,10.73
2018-09-21T03:51:29.096Z,7.57
2018-09-21T03:53:56.806Z,9.97
2018-09-21T03:56:24.936Z,7.43
2018-09-21T03:58:52.518Z,11.80
2018-09-21T04:01:20.155Z,9.30
2018-09-21T04:03:47.773Z,7.30
2018-09-21T04:06:15.657Z,11.57
2018-09-21T04:08:44.135Z,8.90
2018-09-21T04:11:11.871Z,6.67
2018-09-21T04:13:39.490Z,10.80
2018-09-21T04:16:07.297Z,8.67
2018-09-21T04:18:36.074Z,12.13
2018-09-21T04:21:04.399Z,11.67
2018-09-21T04:23:32.110Z,9.50
2018-09-21T04:25:59.495Z,7.67
2018-09-21T04:28:27.422Z,9.53
2018-09-21T04:30:56.146Z,7.33
2018-09-21T04:33:23.817Z,10.20
2018-09-21T04:35:52.070Z,11.80
2018-09-21T04:38:19.765Z,11.73
2018-09-21T04:40:47.620Z,10.17
2018-09-21T04:43:15.256Z,9.77
2018-09-21T04:45:43.651Z,8.93
2018-09-21T04:48:11.364Z,9.60
2018-09-21T04:50:39.428Z,10.90
2018-09-21T04:53:07.362Z,10.27
2018-09-21T04:55:35.560Z,12.80
2018-09-21T04:58:03.193Z,13.90
2018-09-21T05:00:31.125Z,12.57
2018-09-21T05:03:00.226Z,14.50
2018-09-21T05:55:01.646Z,10.90
2018-09-21T05:57:32.878Z,10.10
2018-09-21T06:00:03.010Z,9.53
2018-09-21T06:02:34.143Z,7.90
2018-09-21T06:05:04.571Z,13.37
2018-09-21T06:07:34.212Z,13.90
2018-09-21T06:10:05.414Z,10.23
2018-09-21T06:12:35.644Z,11.57
2018-09-21T06:15:04.743Z,9.80
2018-09-21T06:17:34.869Z,11.47
2018-09-21T06:20:12.035Z,10.40
2018-09-21T06:22:44.848Z,12.93
2018-09-21T06:25:02.796Z,8.27
2018-09-21T06:27:33.185Z,12.97
2018-09-21T06:30:04.090Z,11.40
2018-09-21T06:32:33.407Z,11.70
2018-09-21T06:35:05.459Z,8.17
2018-09-21T06:37:33.584Z,12.10
2018-09-21T06:40:03.151Z,12.73
2018-09-21T06:42:31.101Z,10.60
2018-09-21T06:45:00.025Z,9.07
2018-09-21T06:47:28.478Z,6.67
2018-09-21T06:49:57.400Z,7.60
2018-09-21T06:52:26.600Z,17.27
2018-09-21T06:54:55.319Z,15.47
2018-09-21T06:57:24.855Z,7.30
2018-09-21T06:59:52.684Z,11.17
2018-09-21T07:02:21.904Z,16.33
2018-09-21T07:04:49.722Z,10.17
2018-09-21T07:07:18.205Z,11.40
2018-09-21T07:09:49.374Z,12.17
2018-09-21T07:12:19.364Z,10.13
2018-09-21T07:14:48.104Z,15.17
2018-09-21T07:17:17.957Z,15.23
2018-09-21T07:19:45.738Z,16.07
2018-09-21T07:22:14.136Z,13.43
2018-09-21T07:24:42.539Z,12.10
2018-09-21T07:27:13.869Z,12.57
2018-09-21T07:29:42.234Z,13.20
2018-09-21T07:32:10.793Z,12.93
2018-09-21T07:34:38.922Z,12.60
2018-09-21T07:37:07.560Z,15.50
2018-09-21T07:39:35.582Z,10.93
2018-09-21T07:42:03.580Z,13.23
2018-09-21T07:44:31.700Z,11.83
2018-09-21T07:46:59.966Z,12.97
2018-09-21T07:49:27.656Z,16.10
2018-09-21T07:51:55.559Z,22.60
2018-09-21T07:54:23.460Z,18.90
2018-09-21T07:56:51.399Z,9.60
2018-09-21T07:59:19.348Z,8.30
2018-09-21T08:04:29.039Z,14.83
2018-09-21T08:06:59.656Z,17.53
2018-09-21T08:09:28.775Z,19.90
2018-09-21T08:11:59.767Z,13.40
2018-09-21T08:14:30.099Z,13.67
2018-09-21T08:17:01.275Z,16.37
2018-09-21T08:19:30.240Z,25.27
2018-09-21T08:21:58.336Z,22.53
2018-09-21T08:24:29.587Z,20.40
2018-09-21T08:27:03.930Z,27.47
2018-09-21T08:29:33.792Z,53.20
2018-09-21T08:32:03.407Z,72.63
2018-09-21T08:34:38.048Z,87.30
2018-09-21T08:37:12.317Z,150.33
2018-09-21T08:39:41.835Z,123.07
2018-09-21T08:42:12.471Z,286.63
2018-09-21T08:44:42.037Z,131.30
2018-09-21T08:47:11.678Z,49.27
2018-09-21T08:49:44.770Z,45.40
2018-09-21T08:52:12.756Z,72.20
2018-09-21T08:54:43.756Z,224.53
2018-09-21T08:59:47.992Z,119.00
2018-09-21T09:05:06.372Z,68.70
2018-09-21T09:07:34.553Z,131.50
2018-09-21T09:10:03.527Z,112.60
2018-09-21T09:12:31.671Z,48.50
2018-09-21T09:41:14.293Z,18.93
2018-09-21T09:43:44.377Z,9.53
2018-09-21T09:46:13.283Z,23.40
2018-09-21T09:48:44.635Z,39.03
2018-09-21T09:51:14.390Z,14.60
2018-09-21T09:53:43.489Z,6.20
2018-09-21T09:56:14.982Z,3.93
2018-09-21T09:58:46.202Z,7.93
2018-09-21T10:01:14.423Z,9.87
2018-09-21T10:03:42.559Z,4.77
2018-09-21T10:06:13.254Z,6.87
2018-09-21T10:08:49.304Z,4.83
2018-09-21T10:11:18.588Z,5.87
2018-09-21T10:13:49.909Z,3.77
2018-09-21T10:19:06.703Z,3.63
2018-09-21T10:21:36.612Z,6.23
2018-09-21T10:24:09.225Z,5.27
2018-09-21T10:26:40.829Z,4.27
2018-09-21T10:29:09.047Z,5.27
2018-09-21T10:31:42.587Z,6.73
2018-09-21T10:34:15.153Z,5.67
2018-09-21T10:36:43.446Z,8.50
2018-09-21T10:39:11.197Z,5.93
2018-09-21T10:41:39.784Z,10.70
2018-09-21T10:44:08.222Z,14.33
2018-09-21T10:46:37.059Z,9.83
2018-09-21T10:49:04.855Z,12.63
2018-09-21T10:51:34.238Z,11.10
2018-09-21T10:54:01.899Z,11.57
2018-09-21T10:56:30.551Z,11.27
2018-09-21T10:59:00.091Z,10.13
2018-09-21T11:01:27.952Z,10.77
2018-09-21T11:03:55.708Z,10.73
2018-09-21T11:06:23.663Z,12.97
2018-09-21T11:08:51.961Z,9.70
2018-09-21T11:11:20.310Z,11.73
2018-09-21T11:13:48.214Z,11.63
2018-09-21T11:16:16.491Z,11.27
2018-09-21T11:18:45.506Z,12.77
2018-09-21T11:21:13.243Z,12.33
2018-09-21T11:23:41.370Z,10.53
2018-09-21T11:26:09.106Z,14.20
2018-09-21T11:28:36.967Z,8.87
2018-09-21T11:31:04.860Z,10.40
2018-09-21T11:33:32.937Z,12.63
2018-09-21T11:36:05.543Z,13.10
2018-09-21T11:38:39.117Z,13.30
2018-09-21T11:41:07.866Z,9.87
2018-09-21T11:43:35.828Z,11.13
2018-09-21T11:46:03.968Z,13.73
2018-09-21T11:48:31.979Z,9.47
2018-09-21T11:51:00.781Z,11.87
2018-09-21T11:53:28.733Z,8.77
2018-09-21T11:55:56.872Z,13.90
2018-09-21T11:58:26.696Z,13.67
2018-09-21T12:00:56.826Z,13.43
2018-09-21T12:03:25.686Z,9.57
2018-09-21T12:05:53.745Z,8.63
2018-09-21T12:08:25.444Z,15.90
2018-09-21T12:10:53.706Z,12.40
2018-09-21T12:13:21.873Z,13.83
2018-09-21T12:15:49.845Z,12.30
2018-09-21T12:18:17.653Z,13.23
2018-09-21T12:20:45.435Z,13.90
2018-09-21T12:23:13.836Z,12.43
2018-09-21T12:25:58.168Z,14.47
2018-09-21T12:28:58.941Z,8.23
2018-09-21T12:31:31.191Z,12.73
2018-09-21T12:33:59.374Z,12.93
2018-09-21T12:36:29.880Z,9.63
2018-09-21T12:38:58.830Z,12.50
2018-09-21T12:41:27.980Z,10.73
2018-09-21T12:43:56.242Z,14.83
2018-09-21T12:46:27.456Z,17.10
2018-09-21T12:48:58.177Z,10.93
2018-09-21T12:51:27.778Z,9.83
2018-09-21T12:53:56.982Z,15.03
2018-09-21T12:56:26.265Z,10.00
2018-09-21T12:58:57.492Z,11.77
2018-09-21T13:01:26.519Z,10.33
2018-09-21T13:03:57.048Z,9.33
2018-09-21T13:06:25.541Z,12.27
2018-09-21T13:08:53.482Z,10.00
2018-09-21T13:11:21.228Z,12.03
2018-09-21T13:13:49.062Z,11.17
2018-09-21T13:16:19.137Z,10.73
2018-09-21T13:18:47.330Z,9.40
2018-09-21T13:21:17.037Z,12.70
2018-09-21T13:23:46.177Z,10.90
2018-09-21T13:26:14.217Z,10.17
2018-09-21T13:28:42.414Z,11.80
2018-09-21T13:31:13.249Z,7.67
2018-09-21T13:33:45.529Z,6.97
2018-09-21T13:36:13.746Z,4.63
2018-09-21T13:38:41.808Z,5.90
2018-09-21T13:41:10.898Z,7.13
2018-09-21T13:44:37.732Z,5.33
2018-09-21T13:47:06.796Z,5.10
2018-09-21T13:49:38.459Z,6.20
2018-09-21T13:52:14.304Z,6.40
2018-09-21T13:54:45.245Z,6.97
2018-09-21T13:57:30.707Z,6.60
2018-09-21T14:00:02.900Z,8.57
2018-09-21T14:02:44.978Z,3.77
2018-09-21T14:05:32.137Z,3.93
2018-09-21T14:10:42.469Z,4.00
2018-09-21T14:13:16.567Z,6.67
2018-09-21T14:29:35.784Z,6.50
2018-09-21T14:34:57.879Z,6.03
2018-09-21T14:37:34.421Z,3.63
2018-09-21T14:40:05.539Z,4.73
2018-09-21T14:42:41.144Z,5.87
2018-09-21T14:45:17.041Z,6.00
2018-09-21T14:47:53.086Z,2.17
2018-09-21T14:50:33.640Z,2.17
2018-09-21T14:53:09.661Z,3.47
2018-09-21T14:55:40.062Z,4.87
2018-09-21T14:58:08.274Z,1.80
2018-09-21T15:00:38.156Z,7.30
2018-09-21T15:03:07.353Z,2.53
2018-09-21T15:05:41.571Z,4.23
2018-09-21T15:08:10.570Z,5.00
2018-09-21T15:10:38.701Z,3.27
2018-09-21T15:13:06.700Z,4.47
2018-09-21T15:15:35.763Z,4.27
2018-09-21T15:18:09.365Z,4.80
2018-09-21T15:20:38.312Z,5.07
2018-09-21T15:23:06.226Z,5.60
2018-09-21T15:25:34.377Z,4.33
2018-09-21T15:28:03.414Z,4.17
2018-09-21T15:34:16.729Z,4.70
2018-09-21T15:40:49.880Z,3.63
2018-09-21T15:43:56.998Z,2.67
2018-09-21T15:46:51.474Z,1.17
2018-09-21T15:49:45.875Z,5.57
2018-09-21T15:52:36.853Z,3.55
2018-09-21T15:55:08.505Z,3.97
2018-09-21T15:58:50.247Z,2.90
2018-09-21T16:01:19.678Z,4.53
2018-09-21T16:04:09.623Z,2.93
2018-09-21T16:06:53.056Z,2.97
2018-09-21T16:09:21.174Z,3.10
2018-09-21T16:11:51.801Z,3.53
2018-09-21T16:14:21.345Z,3.37
2018-09-21T16:17:04.064Z,4.90
2018-09-21T16:19:34.776Z,4.73
2018-09-21T16:22:13.221Z,6.13
2018-09-21T16:24:43.648Z,2.40
2018-09-21T16:27:14.971Z,3.63
2018-09-21T16:29:50.234Z,1.53
2018-09-21T16:32:21.064Z,1.90
2018-09-21T16:34:49.787Z,5.43
2018-09-21T16:37:25.747Z,2.43
2018-09-21T16:39:55.131Z,3.50
2018-09-21T16:42:26.659Z,2.17
2018-09-21T16:45:11.335Z,6.77
2018-09-21T16:47:39.181Z,6.20
2018-09-21T16:50:09.470Z,5.73
2018-09-21T16:52:49.978Z,5.80
2018-09-21T16:55:26.089Z,6.63
2018-09-21T16:58:00.650Z,2.07
2018-09-21T17:00:29.589Z,6.20
2018-09-21T17:03:05.845Z,4.50
2018-09-21T17:05:46.433Z,3.60
2018-09-21T17:08:19.287Z,5.00
2018-09-21T17:10:48.486Z,5.03
2018-09-21T17:13:17.549Z,3.07
2018-09-21T17:15:50.114Z,4.60
2018-09-21T17:18:37.148Z,7.07
2018-09-21T17:21:12.826Z,3.37
2018-09-21T17:23:42.724Z,5.33
2018-09-21T17:26:12.635Z,4.03
2018-09-21T17:28:41.205Z,4.87
2018-09-21T17:31:10.480Z,3.67
2018-09-21T17:33:40.247Z,8.10
2018-09-21T17:36:12.375Z,8.60
2018-09-21T17:39:07.996Z,4.90
2018-09-21T17:41:45.309Z,6.47
2018-09-21T17:47:35.121Z,3.83
2018-09-21T17:53:03.918Z,3.97
2018-09-21T17:59:17.612Z,6.33
2018-09-21T18:01:51.873Z,5.80
2018-09-21T18:04:20.537Z,2.67
2018-09-21T18:07:01.695Z,5.27
2018-09-21T18:09:32.067Z,5.23
2018-09-21T18:12:01.662Z,3.83
2018-09-21T18:14:31.535Z,5.50
2018-09-21T18:17:00.765Z,6.73
2018-09-21T18:19:30.482Z,5.03
2018-09-21T18:22:00.722Z,8.00
2018-09-21T18:24:37.121Z,4.80
2018-09-21T18:27:05.747Z,4.87
2018-09-21T18:29:35.573Z,7.70
2018-09-21T18:32:04.855Z,4.67
2018-09-21T18:34:35.384Z,5.90
2018-09-21T18:37:06.129Z,3.90
2018-09-21T18:39:39.986Z,5.50
2018-09-21T18:43:02.055Z,3.37
2018-09-21T18:45:31.601Z,6.00
2018-09-21T18:48:02.783Z,4.17
2018-09-21T18:50:36.049Z,3.80
2018-09-21T18:53:08.324Z,3.43
2018-09-21T18:55:40.316Z,5.37
2018-09-21T18:58:08.256Z,3.57
2018-09-21T19:00:41.092Z,2.80
2018-09-21T19:03:11.705Z,6.00
2018-09-21T19:11:40.998Z,2.20
2018-09-21T19:14:18.800Z,2.53
2018-09-21T19:16:48.064Z,3.07
2018-09-21T19:22:13.626Z,1.80
2018-09-21T19:27:29.274Z,2.37
2018-09-21T19:30:01.010Z,1.47
2018-09-21T19:32:30.473Z,1.30
2018-09-21T19:34:59.648Z,1.53
2018-09-21T19:37:29.274Z,1.43
2018-09-21T19:39:58.076Z,0.50
2018-09-21T19:42:35.253Z,1.80
2018-09-21T19:45:04.836Z,2.83
2018-09-21T19:47:34.653Z,1.30
2018-09-21T19:50:04.888Z,2.40
2018-09-21T19:52:34.549Z,1.55
2018-09-21T19:55:06.943Z,1.00
2018-09-21T19:57:43.137Z,1.60
2018-09-21T20:00:11.243Z,0.70
2018-09-21T20:02:43.886Z,0.60
2018-09-21T20:05:15.720Z,0.50
2018-09-21T20:07:44.648Z,0.43
2018-09-21T20:10:15.994Z,2.63
2018-09-21T20:12:44.888Z,1.60
2018-09-21T20:17:54.112Z,2.37
2018-09-21T20:20:24.699Z,3.17
2018-09-21T20:25:33.719Z,1.37
2018-09-21T20:28:03.107Z,4.00
2018-09-21T20:30:37.145Z,1.70
2018-09-21T20:33:11.041Z,1.47
2018-09-21T20:35:39.431Z,2.07
2018-09-21T20:38:09.913Z,1.90
2018-09-21T20:40:39.192Z,0.47
2018-09-21T20:43:10.139Z,1.27
2018-09-21T20:45:38.306Z,1.27
2018-09-21T20:48:09.944Z,0.60
2018-09-21T20:50:39.809Z,1.60
2018-09-21T20:53:11.799Z,1.13
2018-09-21T20:55:43.956Z,1.97
2018-09-21T20:58:16.876Z,1.00
2018-09-21T21:00:49.199Z,1.93
2018-09-21T21:03:31.449Z,2.07
2018-09-21T21:06:14.624Z,1.03
2018-09-21T21:08:58.430Z,2.17
2018-09-21T21:11:29.960Z,2.73
2018-09-21T21:14:03.612Z,0.30
2018-09-21T21:16:34.131Z,1.27
2018-09-21T21:19:16.071Z,1.43
2018-09-21T21:21:55.602Z,1.00
2018-09-21T21:24:34.300Z,2.40
2018-09-21T21:29:51.841Z,2.07
2018-09-21T21:32:37.437Z,3.33
2018-09-21T21:35:07.099Z,1.53
2018-09-21T21:37:43.807Z,1.17
2018-09-21T21:40:14.083Z,1.97
2018-09-21T21:42:50.219Z,2.67
2018-09-21T21:45:23.286Z,0.70
2018-09-21T21:47:56.523Z,1.47
2018-09-21T21:50:31.199Z,1.00
2018-09-21T21:53:07.121Z,2.10
2018-09-21T21:55:49.091Z,0.53
2018-09-21T21:58:21.079Z,2.53
2018-09-21T22:01:18.603Z,2.43
2018-09-21T22:04:16.020Z,1.86
2018-09-21T22:06:49.745Z,1.57
2018-09-21T22:09:20.456Z,2.13
2018-09-21T22:11:57.339Z,2.97
2018-09-21T22:14:32.355Z,2.53
2018-09-21T22:17:04.807Z,3.03
2018-09-21T22:19:36.820Z,1.23
2018-09-21T22:22:09.094Z,1.23
2018-09-21T22:24:43.267Z,2.00
2018-09-21T22:27:30.113Z,4.40
2018-09-21T22:30:02.141Z,2.47
2018-09-21T22:32:34.355Z,2.77
2018-09-21T22:35:06.160Z,2.63
2018-09-21T22:37:38.897Z,6.00
2018-09-21T22:40:12.949Z,1.62
2018-09-21T22:42:45.101Z,3.57
2018-09-21T22:45:18.053Z,2.33
2018-09-21T23:05:21.879Z,1.33
2018-09-21T23:07:53.772Z,3.40
2018-09-21T23:10:39.804Z,1.40
2018-09-21T23:13:15.505Z,2.33
2018-09-21T23:16:07.493Z,3.73
2018-09-21T23:18:38.256Z,2.20
2018-09-21T23:21:26.501Z,2.20
2018-09-21T23:23:58.472Z,2.17
2018-09-21T23:26:32.658Z,2.13
2018-09-21T23:29:02.749Z,2.50
2018-09-21T23:31:39.811Z,3.53
2018-09-21T23:36:52.825Z,2.73
2018-09-21T23:39:24.444Z,2.13
2018-09-21T23:41:58.500Z,2.40
2018-09-21T23:44:27.006Z,2.93
2018-09-21T23:46:55.948Z,3.70
2018-09-21T23:49:23.673Z,1.83
2018-09-21T23:51:52.026Z,1.83
2018-09-21T23:54:22.811Z,3.17
2018-09-21T23:59:35.109Z,2.77
